Schedule Details

Flight Number: CPX990
Departure: Alice Springs Airport (YBAS) at N/A
Arrival: Kingsford Smith International Airport (YSSY) at N/A
Route: KALUG A576 PKS H319 TARAL Y59 RIVET


Current Weather Information
YBAS 192300Z 11012KT CAVOK 28/05 Q1016
YSSY 192300Z 20015KT 9999 VCSH SCT006 BKN013 20/19 Q1012